sensor_id;sensor_type;location;lat;lon;timestamp;temperature;humidity
11239;DHT22;5677;48.488;13.436;2022-09-25T00:01:07;14.20;52.00
11239;DHT22;5677;48.488;13.436;2022-09-25T00:03:34;14.20;52.00
11239;DHT22;5677;48.488;13.436;2022-09-25T00:06:04;14.20;51.90
11239;DHT22;5677;48.488;13.436;2022-09-25T00:08:34;14.20;52.00
11239;DHT22;5677;48.488;13.436;2022-09-25T00:11:06;14.20;52.00
11239;DHT22;5677;48.488;13.436;2022-09-25T00:13:34;14.20;52.00
11239;DHT22;5677;48.488;13.436;2022-09-25T00:16:01;14.20;52.00
11239;DHT22;5677;48.488;13.436;2022-09-25T00:18:30;14.20;52.00
11239;DHT22;5677;48.488;13.436;2022-09-25T00:21:12;14.20;52.00
11239;DHT22;5677;48.488;13.436;2022-09-25T00:23:42;14.20;52.00
11239;DHT22;5677;48.488;13.436;2022-09-25T00:26:12;14.20;52.00
11239;DHT22;5677;48.488;13.436;2022-09-25T00:28:40;14.10;52.00
11239;DHT22;5677;48.488;13.436;2022-09-25T00:31:08;14.10;52.00
11239;DHT22;5677;48.488;13.436;2022-09-25T00:33:37;14.20;52.00
11239;DHT22;5677;48.488;13.436;2022-09-25T00:36:05;14.10;52.00
11239;DHT22;5677;48.488;13.436;2022-09-25T00:38:35;14.10;52.00
11239;DHT22;5677;48.488;13.436;2022-09-25T00:41:05;14.20;52.00
11239;DHT22;5677;48.488;13.436;2022-09-25T00:43:37;14.10;52.00
11239;DHT22;5677;48.488;13.436;2022-09-25T00:46:08;14.10;52.00
11239;DHT22;5677;48.488;13.436;2022-09-25T00:48:43;14.10;52.00
11239;DHT22;5677;48.488;13.436;2022-09-25T00:51:15;14.20;52.00
11239;DHT22;5677;48.488;13.436;2022-09-25T00:53:46;14.10;52.00
11239;DHT22;5677;48.488;13.436;2022-09-25T00:56:14;14.10;52.00
11239;DHT22;5677;48.488;13.436;2022-09-25T00:58:43;14.10;52.00
11239;DHT22;5677;48.488;13.436;2022-09-25T01:01:10;14.10;52.00
11239;DHT22;5677;48.488;13.436;2022-09-25T01:03:39;14.10;52.10
11239;DHT22;5677;48.488;13.436;2022-09-25T01:06:07;14.20;52.00
11239;DHT22;5677;48.488;13.436;2022-09-25T01:08:37;14.10;52.00
11239;DHT22;5677;48.488;13.436;2022-09-25T01:11:05;14.10;52.00
11239;DHT22;5677;48.488;13.436;2022-09-25T01:13:32;14.20;52.00
11239;DHT22;5677;48.488;13.436;2022-09-25T01:16:07;14.10;52.00
11239;DHT22;5677;48.488;13.436;2022-09-25T01:18:50;14.10;52.00
11239;DHT22;5677;48.488;13.436;2022-09-25T01:21:29;14.10;52.00
11239;DHT22;5677;48.488;13.436;2022-09-25T01:24:36;14.20;52.70
11239;DHT22;5677;48.488;13.436;2022-09-25T01:27:35;14.10;52.00
11239;DHT22;5677;48.488;13.436;2022-09-25T01:30:13;14.10;52.00
11239;DHT22;5677;48.488;13.436;2022-09-25T01:32:54;14.10;52.00
11239;DHT22;5677;48.488;13.436;2022-09-25T01:35:33;14.20;52.00
11239;DHT22;5677;48.488;13.436;2022-09-25T01:38:12;14.20;52.00
11239;DHT22;5677;48.488;13.436;2022-09-25T01:40:52;14.20;52.00
11239;DHT22;5677;48.488;13.436;2022-09-25T01:43:31;14.20;52.00
11239;DHT22;5677;48.488;13.436;2022-09-25T01:46:08;14.10;52.00
11239;DHT22;5677;48.488;13.436;2022-09-25T01:48:42;14.20;52.00
11239;DHT22;5677;48.488;13.436;2022-09-25T01:51:15;14.10;52.10
11239;DHT22;5677;48.488;13.436;2022-09-25T01:53:50;14.20;52.10
11239;DHT22;5677;48.488;13.436;2022-09-25T01:56:22;14.20;52.00
11239;DHT22;5677;48.488;13.436;2022-09-25T01:59:02;14.20;52.00
11239;DHT22;5677;48.488;13.436;2022-09-25T02:01:37;14.10;52.10
11239;DHT22;5677;48.488;13.436;2022-09-25T02:04:10;14.10;52.10
11239;DHT22;5677;48.488;13.436;2022-09-25T02:06:42;14.10;52.00
11239;DHT22;5677;48.488;13.436;2022-09-25T02:09:17;14.10;52.10
11239;DHT22;5677;48.488;13.436;2022-09-25T02:11:51;14.10;52.00
11239;DHT22;5677;48.488;13.436;2022-09-25T02:14:26;14.10;52.00
11239;DHT22;5677;48.488;13.436;2022-09-25T02:17:01;14.20;52.10
11239;DHT22;5677;48.488;13.436;2022-09-25T02:19:32;14.20;52.10
11239;DHT22;5677;48.488;13.436;2022-09-25T02:22:20;14.10;52.10
11239;DHT22;5677;48.488;13.436;2022-09-25T02:24:54;14.10;52.00
11239;DHT22;5677;48.488;13.436;2022-09-25T02:27:26;14.20;52.10
11239;DHT22;5677;48.488;13.436;2022-09-25T02:29:54;14.10;52.10
11239;DHT22;5677;48.488;13.436;2022-09-25T02:32:28;14.10;52.10
11239;DHT22;5677;48.488;13.436;2022-09-25T02:34:57;14.20;52.10
11239;DHT22;5677;48.488;13.436;2022-09-25T02:37:25;14.10;52.00
11239;DHT22;5677;48.488;13.436;2022-09-25T02:39:54;14.20;52.10
11239;DHT22;5677;48.488;13.436;2022-09-25T02:42:31;14.20;52.10
11239;DHT22;5677;48.488;13.436;2022-09-25T02:45:09;14.20;52.10
11239;DHT22;5677;48.488;13.436;2022-09-25T02:47:54;14.10;52.10
11239;DHT22;5677;48.488;13.436;2022-09-25T02:50:30;14.10;52.10
11239;DHT22;5677;48.488;13.436;2022-09-25T02:53:08;14.10;52.10
11239;DHT22;5677;48.488;13.436;2022-09-25T02:55:46;14.10;52.10
11239;DHT22;5677;48.488;13.436;2022-09-25T02:58:22;14.20;52.10
11239;DHT22;5677;48.488;13.436;2022-09-25T03:00:54;14.20;52.10
11239;DHT22;5677;48.488;13.436;2022-09-25T03:03:24;14.20;52.10
11239;DHT22;5677;48.488;13.436;2022-09-25T03:05:55;14.10;52.10
11239;DHT22;5677;48.488;13.436;2022-09-25T03:08:25;14.10;52.10
11239;DHT22;5677;48.488;13.436;2022-09-25T03:11:08;14.10;52.10
11239;DHT22;5677;48.488;13.436;2022-09-25T03:13:38;14.10;52.10
11239;DHT22;5677;48.488;13.436;2022-09-25T03:16:09;14.10;52.10
11239;DHT22;5677;48.488;13.436;2022-09-25T03:18:43;14.10;52.10
11239;DHT22;5677;48.488;13.436;2022-09-25T03:21:10;14.10;52.10
11239;DHT22;5677;48.488;13.436;2022-09-25T03:23:38;14.20;52.10
11239;DHT22;5677;48.488;13.436;2022-09-25T03:26:06;14.10;52.10
11239;DHT22;5677;48.488;13.436;2022-09-25T03:28:33;14.10;52.10
11239;DHT22;5677;48.488;13.436;2022-09-25T03:31:02;14.10;52.10
11239;DHT22;5677;48.488;13.436;2022-09-25T03:33:33;14.10;52.10
11239;DHT22;5677;48.488;13.436;2022-09-25T03:36:05;14.20;52.10
11239;DHT22;5677;48.488;13.436;2022-09-25T03:38:34;14.10;52.10
11239;DHT22;5677;48.488;13.436;2022-09-25T03:41:01;14.20;52.10
11239;DHT22;5677;48.488;13.436;2022-09-25T03:43:30;14.10;52.10
11239;DHT22;5677;48.488;13.436;2022-09-25T03:45:58;14.10;52.10
11239;DHT22;5677;48.488;13.436;2022-09-25T03:48:25;14.10;52.10
11239;DHT22;5677;48.488;13.436;2022-09-25T03:50:51;14.20;52.10
11239;DHT22;5677;48.488;13.436;2022-09-25T03:53:22;14.10;52.10
11239;DHT22;5677;48.488;13.436;2022-09-25T03:55:49;14.10;52.10
11239;DHT22;5677;48.488;13.436;2022-09-25T03:58:17;14.10;52.10
11239;DHT22;5677;48.488;13.436;2022-09-25T04:00:45;14.10;52.10
11239;DHT22;5677;48.488;13.436;2022-09-25T04:03:12;14.10;52.10
11239;DHT22;5677;48.488;13.436;2022-09-25T04:05:40;14.10;52.10
11239;DHT22;5677;48.488;13.436;2022-09-25T04:08:08;14.10;52.10
11239;DHT22;5677;48.488;13.436;2022-09-25T04:10:37;14.10;52.10
11239;DHT22;5677;48.488;13.436;2022-09-25T04:13:05;14.10;52.10
11239;DHT22;5677;48.488;13.436;2022-09-25T04:15:33;14.10;52.10
11239;DHT22;5677;48.488;13.436;2022-09-25T04:18:00;14.10;52.10
11239;DHT22;5677;48.488;13.436;2022-09-25T04:20:27;14.10;52.10
11239;DHT22;5677;48.488;13.436;2022-09-25T04:22:54;14.10;52.10
11239;DHT22;5677;48.488;13.436;2022-09-25T04:25:21;14.10;52.10
11239;DHT22;5677;48.488;13.436;2022-09-25T04:27:51;14.10;52.10
11239;DHT22;5677;48.488;13.436;2022-09-25T04:30:19;14.10;52.80
11239;DHT22;5677;48.488;13.436;2022-09-25T04:32:47;14.10;52.20
11239;DHT22;5677;48.488;13.436;2022-09-25T04:35:32;14.10;52.20
11239;DHT22;5677;48.488;13.436;2022-09-25T04:37:59;14.10;52.10
11239;DHT22;5677;48.488;13.436;2022-09-25T04:40:26;14.10;52.10
11239;DHT22;5677;48.488;13.436;2022-09-25T04:42:58;14.10;52.10
11239;DHT22;5677;48.488;13.436;2022-09-25T04:45:27;14.10;52.10
11239;DHT22;5677;48.488;13.436;2022-09-25T04:47:57;14.10;52.10
11239;DHT22;5677;48.488;13.436;2022-09-25T04:50:26;14.10;52.10
11239;DHT22;5677;48.488;13.436;2022-09-25T04:52:55;14.10;52.10
11239;DHT22;5677;48.488;13.436;2022-09-25T04:55:24;14.10;52.10
11239;DHT22;5677;48.488;13.436;2022-09-25T04:57:52;14.10;52.20
11239;DHT22;5677;48.488;13.436;2022-09-25T05:00:21;14.10;52.10
11239;DHT22;5677;48.488;13.436;2022-09-25T05:02:49;14.10;52.10
11239;DHT22;5677;48.488;13.436;2022-09-25T05:05:16;14.10;52.10
11239;DHT22;5677;48.488;13.436;2022-09-25T05:07:50;14.10;52.10
11239;DHT22;5677;48.488;13.436;2022-09-25T05:10:18;14.10;52.20
11239;DHT22;5677;48.488;13.436;2022-09-25T05:12:46;14.10;52.10
11239;DHT22;5677;48.488;13.436;2022-09-25T05:15:13;14.10;52.10
11239;DHT22;5677;48.488;13.436;2022-09-25T05:17:42;14.10;52.10
11239;DHT22;5677;48.488;13.436;2022-09-25T05:20:09;14.10;52.20
11239;DHT22;5677;48.488;13.436;2022-09-25T05:22:36;14.10;52.10
11239;DHT22;5677;48.488;13.436;2022-09-25T05:25:04;14.10;52.10
11239;DHT22;5677;48.488;13.436;2022-09-25T05:27:32;14.10;52.10
11239;DHT22;5677;48.488;13.436;2022-09-25T05:29:59;14.10;52.80
11239;DHT22;5677;48.488;13.436;2022-09-25T05:32:26;14.10;52.10
11239;DHT22;5677;48.488;13.436;2022-09-25T05:34:56;14.10;52.10
11239;DHT22;5677;48.488;13.436;2022-09-25T05:37:23;14.10;52.10
11239;DHT22;5677;48.488;13.436;2022-09-25T05:39:50;14.10;52.20
11239;DHT22;5677;48.488;13.436;2022-09-25T05:42:17;14.10;52.10
11239;DHT22;5677;48.488;13.436;2022-09-25T05:44:45;14.10;52.10
11239;DHT22;5677;48.488;13.436;2022-09-25T05:47:12;14.10;52.20
11239;DHT22;5677;48.488;13.436;2022-09-25T05:49:39;14.10;52.20
11239;DHT22;5677;48.488;13.436;2022-09-25T05:52:07;14.10;52.10
11239;DHT22;5677;48.488;13.436;2022-09-25T05:54:34;14.10;52.20
11239;DHT22;5677;48.488;13.436;2022-09-25T05:57:01;14.10;52.80
11239;DHT22;5677;48.488;13.436;2022-09-25T05:59:28;14.10;52.10
11239;DHT22;5677;48.488;13.436;2022-09-25T06:01:55;14.10;52.10
11239;DHT22;5677;48.488;13.436;2022-09-25T06:04:22;14.10;52.10
11239;DHT22;5677;48.488;13.436;2022-09-25T06:06:49;14.10;52.10
11239;DHT22;5677;48.488;13.436;2022-09-25T06:09:18;14.10;52.20
11239;DHT22;5677;48.488;13.436;2022-09-25T06:11:45;14.10;52.10
11239;DHT22;5677;48.488;13.436;2022-09-25T06:14:12;14.10;52.10
11239;DHT22;5677;48.488;13.436;2022-09-25T06:16:39;14.10;52.20
11239;DHT22;5677;48.488;13.436;2022-09-25T06:19:06;14.10;52.10
11239;DHT22;5677;48.488;13.436;2022-09-25T06:21:33;14.10;52.10
11239;DHT22;5677;48.488;13.436;2022-09-25T06:24:00;14.10;52.10
11239;DHT22;5677;48.488;13.436;2022-09-25T06:26:29;14.10;52.10
11239;DHT22;5677;48.488;13.436;2022-09-25T06:28:58;14.10;52.10
11239;DHT22;5677;48.488;13.436;2022-09-25T06:31:25;14.10;52.20
11239;DHT22;5677;48.488;13.436;2022-09-25T06:33:52;14.10;52.10
11239;DHT22;5677;48.488;13.436;2022-09-25T06:36:19;14.10;52.10
11239;DHT22;5677;48.488;13.436;2022-09-25T06:38:47;14.10;52.10
11239;DHT22;5677;48.488;13.436;2022-09-25T06:41:14;14.10;52.10
11239;DHT22;5677;48.488;13.436;2022-09-25T06:43:42;14.10;52.10
11239;DHT22;5677;48.488;13.436;2022-09-25T06:46:09;14.10;52.10
11239;DHT22;5677;48.488;13.436;2022-09-25T06:48:36;14.20;52.10
11239;DHT22;5677;48.488;13.436;2022-09-25T06:51:04;14.20;52.10
11239;DHT22;5677;48.488;13.436;2022-09-25T06:53:33;14.20;52.10
11239;DHT22;5677;48.488;13.436;2022-09-25T06:56:00;14.10;52.10
11239;DHT22;5677;48.488;13.436;2022-09-25T06:58:28;14.10;52.10
11239;DHT22;5677;48.488;13.436;2022-09-25T07:00:57;14.10;52.10
11239;DHT22;5677;48.488;13.436;2022-09-25T07:03:24;14.20;52.10
11239;DHT22;5677;48.488;13.436;2022-09-25T07:06:10;14.10;52.10
11239;DHT22;5677;48.488;13.436;2022-09-25T07:08:38;14.10;52.00
11239;DHT22;5677;48.488;13.436;2022-09-25T07:11:06;14.20;52.00
11239;DHT22;5677;48.488;13.436;2022-09-25T07:13:36;14.20;52.10
11239;DHT22;5677;48.488;13.436;2022-09-25T07:16:06;14.20;52.00
11239;DHT22;5677;48.488;13.436;2022-09-25T07:18:35;14.20;52.00
11239;DHT22;5677;48.488;13.436;2022-09-25T07:21:05;14.20;52.00
11239;DHT22;5677;48.488;13.436;2022-09-25T07:23:34;14.20;52.00
11239;DHT22;5677;48.488;13.436;2022-09-25T07:26:06;14.20;52.00
11239;DHT22;5677;48.488;13.436;2022-09-25T07:28:35;14.20;52.00
11239;DHT22;5677;48.488;13.436;2022-09-25T07:31:12;14.20;52.00
11239;DHT22;5677;48.488;13.436;2022-09-25T07:33:41;14.20;52.00
11239;DHT22;5677;48.488;13.436;2022-09-25T07:36:08;14.20;52.00
11239;DHT22;5677;48.488;13.436;2022-09-25T07:38:36;14.20;51.90
11239;DHT22;5677;48.488;13.436;2022-09-25T07:41:04;14.30;51.90
11239;DHT22;5677;48.488;13.436;2022-09-25T07:43:32;14.30;51.90
11239;DHT22;5677;48.488;13.436;2022-09-25T07:45:59;14.30;51.90
11239;DHT22;5677;48.488;13.436;2022-09-25T07:48:28;14.30;51.70
11239;DHT22;5677;48.488;13.436;2022-09-25T07:50:58;14.40;51.70
11239;DHT22;5677;48.488;13.436;2022-09-25T07:53:26;14.40;51.60
11239;DHT22;5677;48.488;13.436;2022-09-25T07:55:55;14.40;52.20
11239;DHT22;5677;48.488;13.436;2022-09-25T07:58:24;14.40;51.50
11239;DHT22;5677;48.488;13.436;2022-09-25T08:00:51;14.40;51.50
11239;DHT22;5677;48.488;13.436;2022-09-25T08:03:19;14.40;51.40
11239;DHT22;5677;48.488;13.436;2022-09-25T08:05:47;14.40;51.40
11239;DHT22;5677;48.488;13.436;2022-09-25T08:08:22;14.50;51.40
11239;DHT22;5677;48.488;13.436;2022-09-25T08:10:49;14.50;51.50
11239;DHT22;5677;48.488;13.436;2022-09-25T08:13:16;14.50;51.40
11239;DHT22;5677;48.488;13.436;2022-09-25T08:15:45;14.50;51.40
11239;DHT22;5677;48.488;13.436;2022-09-25T08:18:13;14.50;51.40
11239;DHT22;5677;48.488;13.436;2022-09-25T08:20:39;14.50;51.40
11239;DHT22;5677;48.488;13.436;2022-09-25T08:23:08;14.50;51.40
11239;DHT22;5677;48.488;13.436;2022-09-25T08:25:35;14.50;51.40
11239;DHT22;5677;48.488;13.436;2022-09-25T08:28:02;14.50;51.50
11239;DHT22;5677;48.488;13.436;2022-09-25T08:30:29;14.50;51.50
11239;DHT22;5677;48.488;13.436;2022-09-25T08:32:55;14.50;51.50
11239;DHT22;5677;48.488;13.436;2022-09-25T08:35:22;14.50;51.40
11239;DHT22;5677;48.488;13.436;2022-09-25T08:37:50;14.50;51.50
11239;DHT22;5677;48.488;13.436;2022-09-25T08:40:21;14.50;51.40
11239;DHT22;5677;48.488;13.436;2022-09-25T08:42:53;14.50;51.40
11239;DHT22;5677;48.488;13.436;2022-09-25T08:45:26;14.50;51.40
11239;DHT22;5677;48.488;13.436;2022-09-25T08:48:18;14.50;51.40
11239;DHT22;5677;48.488;13.436;2022-09-25T08:51:06;14.50;51.40
11239;DHT22;5677;48.488;13.436;2022-09-25T08:53:34;14.50;52.10
11239;DHT22;5677;48.488;13.436;2022-09-25T08:56:05;14.50;51.40
11239;DHT22;5677;48.488;13.436;2022-09-25T08:58:45;14.50;51.50
11239;DHT22;5677;48.488;13.436;2022-09-25T09:01:20;14.50;51.40
11239;DHT22;5677;48.488;13.436;2022-09-25T09:03:53;14.50;51.50
11239;DHT22;5677;48.488;13.436;2022-09-25T09:06:28;14.50;51.50
11239;DHT22;5677;48.488;13.436;2022-09-25T09:09:01;14.50;51.50
11239;DHT22;5677;48.488;13.436;2022-09-25T09:11:37;14.50;51.50
11239;DHT22;5677;48.488;13.436;2022-09-25T09:14:11;14.50;51.50
11239;DHT22;5677;48.488;13.436;2022-09-25T09:16:44;14.50;51.50
11239;DHT22;5677;48.488;13.436;2022-09-25T09:19:14;14.50;51.50
11239;DHT22;5677;48.488;13.436;2022-09-25T09:21:46;14.50;51.50
11239;DHT22;5677;48.488;13.436;2022-09-25T09:24:23;14.50;51.60
11239;DHT22;5677;48.488;13.436;2022-09-25T09:27:13;14.50;51.60
11239;DHT22;5677;48.488;13.436;2022-09-25T09:30:01;14.50;51.60
11239;DHT22;5677;48.488;13.436;2022-09-25T09:32:56;14.50;51.60
11239;DHT22;5677;48.488;13.436;2022-09-25T09:35:49;14.50;51.60
11239;DHT22;5677;48.488;13.436;2022-09-25T09:38:28;14.50;51.60
11239;DHT22;5677;48.488;13.436;2022-09-25T09:41:27;14.50;51.60
11239;DHT22;5677;48.488;13.436;2022-09-25T09:44:13;14.50;51.60
11239;DHT22;5677;48.488;13.436;2022-09-25T09:46:53;14.50;51.70
11239;DHT22;5677;48.488;13.436;2022-09-25T09:49:32;14.50;51.60
11239;DHT22;5677;48.488;13.436;2022-09-25T09:52:08;14.50;51.60
11239;DHT22;5677;48.488;13.436;2022-09-25T09:54:43;14.50;51.70
11239;DHT22;5677;48.488;13.436;2022-09-25T09:57:17;14.50;51.70
11239;DHT22;5677;48.488;13.436;2022-09-25T09:59:54;14.50;51.70
11239;DHT22;5677;48.488;13.436;2022-09-25T10:02:32;14.50;51.60
11239;DHT22;5677;48.488;13.436;2022-09-25T10:05:08;14.50;51.60
11239;DHT22;5677;48.488;13.436;2022-09-25T10:07:42;14.50;51.60
11239;DHT22;5677;48.488;13.436;2022-09-25T10:10:12;14.50;51.60
11239;DHT22;5677;48.488;13.436;2022-09-25T10:12:42;14.50;51.60
11239;DHT22;5677;48.488;13.436;2022-09-25T10:15:17;14.50;51.60
11239;DHT22;5677;48.488;13.436;2022-09-25T10:17:53;14.50;51.60
11239;DHT22;5677;48.488;13.436;2022-09-25T10:20:22;14.50;51.60
11239;DHT22;5677;48.488;13.436;2022-09-25T10:22:53;14.50;51.60
11239;DHT22;5677;48.488;13.436;2022-09-25T10:25:34;14.50;51.60
11239;DHT22;5677;48.488;13.436;2022-09-25T10:28:21;14.50;51.60
11239;DHT22;5677;48.488;13.436;2022-09-25T10:30:53;14.50;51.60
11239;DHT22;5677;48.488;13.436;2022-09-25T10:33:23;14.50;51.60
11239;DHT22;5677;48.488;13.436;2022-09-25T10:35:51;14.50;51.60
11239;DHT22;5677;48.488;13.436;2022-09-25T10:38:33;14.50;51.60
11239;DHT22;5677;48.488;13.436;2022-09-25T10:41:06;14.50;51.60
11239;DHT22;5677;48.488;13.436;2022-09-25T10:43:50;14.50;51.60
11239;DHT22;5677;48.488;13.436;2022-09-25T10:46:27;14.50;51.60
11239;DHT22;5677;48.488;13.436;2022-09-25T10:49:16;14.60;51.60
11239;DHT22;5677;48.488;13.436;2022-09-25T10:52:04;14.50;51.60
11239;DHT22;5677;48.488;13.436;2022-09-25T10:54:32;14.50;51.50
11239;DHT22;5677;48.488;13.436;2022-09-25T10:57:01;14.50;51.50
11239;DHT22;5677;48.488;13.436;2022-09-25T10:59:46;14.50;51.50
11239;DHT22;5677;48.488;13.436;2022-09-25T11:02:32;14.50;51.50
11239;DHT22;5677;48.488;13.436;2022-09-25T11:05:03;14.50;51.50
11239;DHT22;5677;48.488;13.436;2022-09-25T11:07:32;14.50;51.50
11239;DHT22;5677;48.488;13.436;2022-09-25T11:09:59;14.50;51.60
11239;DHT22;5677;48.488;13.436;2022-09-25T11:12:27;14.50;51.50
11239;DHT22;5677;48.488;13.436;2022-09-25T11:14:58;14.50;51.60
11239;DHT22;5677;48.488;13.436;2022-09-25T11:17:36;14.50;51.60
11239;DHT22;5677;48.488;13.436;2022-09-25T11:20:19;14.50;51.50
11239;DHT22;5677;48.488;13.436;2022-09-25T11:23:02;14.60;51.50
11239;DHT22;5677;48.488;13.436;2022-09-25T11:25:43;14.50;51.60
11239;DHT22;5677;48.488;13.436;2022-09-25T11:28:18;14.60;51.50
11239;DHT22;5677;48.488;13.436;2022-09-25T11:30:56;14.60;51.50
11239;DHT22;5677;48.488;13.436;2022-09-25T11:33:37;14.60;51.50
11239;DHT22;5677;48.488;13.436;2022-09-25T11:36:12;14.60;51.50
11239;DHT22;5677;48.488;13.436;2022-09-25T11:38:45;14.60;51.50
11239;DHT22;5677;48.488;13.436;2022-09-25T11:41:37;14.60;51.50
11239;DHT22;5677;48.488;13.436;2022-09-25T11:44:20;14.60;51.50
11239;DHT22;5677;48.488;13.436;2022-09-25T11:46:58;14.60;51.50
11239;DHT22;5677;48.488;13.436;2022-09-25T11:49:32;14.60;51.50
11239;DHT22;5677;48.488;13.436;2022-09-25T11:52:26;14.60;51.50
11239;DHT22;5677;48.488;13.436;2022-09-25T11:58:23;14.60;51.50
11239;DHT22;5677;48.488;13.436;2022-09-25T12:01:07;14.60;51.50
11239;DHT22;5677;48.488;13.436;2022-09-25T12:03:57;14.60;51.50
11239;DHT22;5677;48.488;13.436;2022-09-25T12:06:58;14.60;51.50
11239;DHT22;5677;48.488;13.436;2022-09-25T12:09:49;14.60;51.60
11239;DHT22;5677;48.488;13.436;2022-09-25T12:12:32;14.60;51.60
11239;DHT22;5677;48.488;13.436;2022-09-25T12:15:14;14.60;51.60
11239;DHT22;5677;48.488;13.436;2022-09-25T12:17:53;14.60;51.50
11239;DHT22;5677;48.488;13.436;2022-09-25T12:20:35;14.60;51.50
11239;DHT22;5677;48.488;13.436;2022-09-25T12:23:16;14.60;51.60
11239;DHT22;5677;48.488;13.436;2022-09-25T12:25:59;14.60;51.60
11239;DHT22;5677;48.488;13.436;2022-09-25T12:28:43;14.60;51.60
11239;DHT22;5677;48.488;13.436;2022-09-25T12:31:27;14.60;51.60
11239;DHT22;5677;48.488;13.436;2022-09-25T12:34:16;14.60;51.50
11239;DHT22;5677;48.488;13.436;2022-09-25T12:36:55;14.60;51.50
11239;DHT22;5677;48.488;13.436;2022-09-25T12:39:34;14.60;51.50
11239;DHT22;5677;48.488;13.436;2022-09-25T12:42:10;14.60;51.50
11239;DHT22;5677;48.488;13.436;2022-09-25T12:44:45;14.60;51.50
11239;DHT22;5677;48.488;13.436;2022-09-25T12:47:23;14.60;51.50
11239;DHT22;5677;48.488;13.436;2022-09-25T12:50:01;14.60;51.60
11239;DHT22;5677;48.488;13.436;2022-09-25T12:52:37;14.60;51.50
11239;DHT22;5677;48.488;13.436;2022-09-25T12:55:11;14.60;51.50
11239;DHT22;5677;48.488;13.436;2022-09-25T12:57:48;14.60;51.60
11239;DHT22;5677;48.488;13.436;2022-09-25T13:00:28;14.60;51.60
11239;DHT22;5677;48.488;13.436;2022-09-25T13:03:00;14.60;51.60
11239;DHT22;5677;48.488;13.436;2022-09-25T13:05:33;14.60;51.50
11239;DHT22;5677;48.488;13.436;2022-09-25T13:08:05;14.60;51.50
11239;DHT22;5677;48.488;13.436;2022-09-25T13:10:43;14.60;51.60
11239;DHT22;5677;48.488;13.436;2022-09-25T13:13:18;14.70;51.60
11239;DHT22;5677;48.488;13.436;2022-09-25T13:15:52;14.70;51.60
11239;DHT22;5677;48.488;13.436;2022-09-25T13:18:22;14.60;51.50
11239;DHT22;5677;48.488;13.436;2022-09-25T13:20:52;14.70;51.60
11239;DHT22;5677;48.488;13.436;2022-09-25T13:23:27;14.70;51.60
11239;DHT22;5677;48.488;13.436;2022-09-25T13:26:09;14.70;51.60
11239;DHT22;5677;48.488;13.436;2022-09-25T13:28:46;14.70;51.60
11239;DHT22;5677;48.488;13.436;2022-09-25T13:31:21;14.60;51.60
11239;DHT22;5677;48.488;13.436;2022-09-25T13:33:53;14.70;51.70
11239;DHT22;5677;48.488;13.436;2022-09-25T13:36:43;14.60;51.60
11239;DHT22;5677;48.488;13.436;2022-09-25T13:39:19;14.70;51.70
11239;DHT22;5677;48.488;13.436;2022-09-25T13:42:13;14.60;51.60
11239;DHT22;5677;48.488;13.436;2022-09-25T13:48:31;14.70;51.70
11239;DHT22;5677;48.488;13.436;2022-09-25T13:51:32;14.70;51.70
11239;DHT22;5677;48.488;13.436;2022-09-25T13:54:02;14.60;51.60
11239;DHT22;5677;48.488;13.436;2022-09-25T13:56:48;14.60;51.60
11239;DHT22;5677;48.488;13.436;2022-09-25T14:02:31;14.70;51.70
11239;DHT22;5677;48.488;13.436;2022-09-25T14:05:14;14.70;51.70
11239;DHT22;5677;48.488;13.436;2022-09-25T14:07:44;14.60;51.60
11239;DHT22;5677;48.488;13.436;2022-09-25T14:10:15;14.60;51.60
11239;DHT22;5677;48.488;13.436;2022-09-25T14:12:45;14.60;51.60
11239;DHT22;5677;48.488;13.436;2022-09-25T14:15:21;14.70;51.70
11239;DHT22;5677;48.488;13.436;2022-09-25T14:17:52;14.70;51.70
11239;DHT22;5677;48.488;13.436;2022-09-25T14:20:32;14.70;51.70
11239;DHT22;5677;48.488;13.436;2022-09-25T14:23:05;14.70;51.70
11239;DHT22;5677;48.488;13.436;2022-09-25T14:25:38;14.70;51.70
11239;DHT22;5677;48.488;13.436;2022-09-25T14:28:21;14.60;51.60
11239;DHT22;5677;48.488;13.436;2022-09-25T14:31:04;14.70;51.70
11239;DHT22;5677;48.488;13.436;2022-09-25T14:33:52;14.60;51.60
11239;DHT22;5677;48.488;13.436;2022-09-25T14:36:35;14.60;51.60
11239;DHT22;5677;48.488;13.436;2022-09-25T14:39:24;14.70;51.70
11239;DHT22;5677;48.488;13.436;2022-09-25T14:42:21;14.60;51.50
11239;DHT22;5677;48.488;13.436;2022-09-25T14:48:14;14.70;51.70
11239;DHT22;5677;48.488;13.436;2022-09-25T14:50:48;14.60;51.60
11239;DHT22;5677;48.488;13.436;2022-09-25T14:53:22;14.70;51.70
11239;DHT22;5677;48.488;13.436;2022-09-25T14:55:52;14.70;51.70
11239;DHT22;5677;48.488;13.436;2022-09-25T14:58:23;14.60;51.60
11239;DHT22;5677;48.488;13.436;2022-09-25T15:00:54;14.60;51.60
11239;DHT22;5677;48.488;13.436;2022-09-25T15:03:28;14.70;51.70
11239;DHT22;5677;48.488;13.436;2022-09-25T15:05:59;14.70;51.70
11239;DHT22;5677;48.488;13.436;2022-09-25T15:08:33;14.60;51.60
11239;DHT22;5677;48.488;13.436;2022-09-25T15:11:09;14.70;51.70
11239;DHT22;5677;48.488;13.436;2022-09-25T15:13:38;14.60;51.60
11239;DHT22;5677;48.488;13.436;2022-09-25T15:16:11;14.60;51.60
11239;DHT22;5677;48.488;13.436;2022-09-25T15:19:01;14.60;51.60
11239;DHT22;5677;48.488;13.436;2022-09-25T15:21:33;14.60;51.60
11239;DHT22;5677;48.488;13.436;2022-09-25T15:24:04;14.70;51.70
11239;DHT22;5677;48.488;13.436;2022-09-25T15:26:39;14.70;51.70
11239;DHT22;5677;48.488;13.436;2022-09-25T15:29:14;14.70;51.80
11239;DHT22;5677;48.488;13.436;2022-09-25T15:31:44;14.60;51.60
11239;DHT22;5677;48.488;13.436;2022-09-25T15:34:20;14.60;51.60
11239;DHT22;5677;48.488;13.436;2022-09-25T15:36:50;14.60;51.60
11239;DHT22;5677;48.488;13.436;2022-09-25T15:39:21;14.60;51.60
11239;DHT22;5677;48.488;13.436;2022-09-25T15:41:50;14.60;51.60
11239;DHT22;5677;48.488;13.436;2022-09-25T15:44:19;14.60;51.60
11239;DHT22;5677;48.488;13.436;2022-09-25T15:46:49;14.70;51.80
11239;DHT22;5677;48.488;13.436;2022-09-25T15:49:23;14.60;51.70
11239;DHT22;5677;48.488;13.436;2022-09-25T15:51:55;14.60;51.60
11239;DHT22;5677;48.488;13.436;2022-09-25T15:54:34;14.70;51.70
11239;DHT22;5677;48.488;13.436;2022-09-25T15:57:05;14.60;51.60
11239;DHT22;5677;48.488;13.436;2022-09-25T15:59:39;14.60;51.70
11239;DHT22;5677;48.488;13.436;2022-09-25T16:02:23;14.60;51.60
11239;DHT22;5677;48.488;13.436;2022-09-25T16:05:13;14.70;51.70
11239;DHT22;5677;48.488;13.436;2022-09-25T16:07:46;14.70;51.70
11239;DHT22;5677;48.488;13.436;2022-09-25T16:10:37;14.70;51.80
11239;DHT22;5677;48.488;13.436;2022-09-25T16:13:04;14.60;51.70
11239;DHT22;5677;48.488;13.436;2022-09-25T16:15:48;14.70;51.70
11239;DHT22;5677;48.488;13.436;2022-09-25T16:18:31;14.70;51.80
11239;DHT22;5677;48.488;13.436;2022-09-25T16:21:15;14.60;51.70
11239;DHT22;5677;48.488;13.436;2022-09-25T16:23:52;14.60;51.70